createdAt,value
2023-11-23T00:00:49.699Z,6.05
2023-11-23T00:03:16.861Z,6.04
2023-11-23T00:05:43.828Z,6.03
2023-11-23T00:08:10.774Z,6.07
2023-11-23T00:10:37.745Z,6.08
2023-11-23T00:13:04.721Z,6.09
2023-11-23T00:15:31.824Z,6.13
2023-11-23T00:17:59.301Z,6.09
2023-11-23T00:20:26.272Z,6.05
2023-11-23T00:22:53.374Z,6.08
2023-11-23T00:25:20.320Z,6.17
2023-11-23T00:27:47.347Z,6.14
2023-11-23T00:30:14.889Z,6.05
2023-11-23T00:32:42.052Z,6.06
2023-11-23T00:35:09.601Z,6.04
2023-11-23T00:37:36.673Z,6.03
2023-11-23T00:40:04.402Z,6.04
2023-11-23T00:42:31.455Z,6.06
2023-11-23T00:44:58.494Z,6.02
2023-11-23T00:47:25.510Z,6.02
2023-11-23T00:49:52.492Z,5.97
2023-11-23T00:52:19.454Z,5.98
2023-11-23T00:54:48.735Z,5.96
2023-11-23T00:57:15.734Z,5.99
2023-11-23T00:59:42.835Z,5.95
2023-11-23T01:02:10.037Z,5.96
2023-11-23T01:04:38.974Z,5.98
2023-11-23T01:07:06.127Z,6.00
2023-11-23T01:09:33.135Z,6.00
2023-11-23T01:12:00.333Z,5.99
2023-11-23T01:14:27.320Z,6.00
2023-11-23T01:16:54.396Z,5.97
2023-11-23T01:19:21.447Z,5.98
2023-11-23T01:21:48.398Z,5.97
2023-11-23T01:24:15.376Z,5.92
2023-11-23T01:26:42.389Z,5.94
2023-11-23T01:29:10.479Z,5.96
2023-11-23T01:31:37.479Z,5.86
2023-11-23T01:34:05.203Z,5.83
2023-11-23T01:36:32.259Z,5.88
2023-11-23T01:38:59.232Z,5.81
2023-11-23T01:41:26.245Z,5.82
2023-11-23T01:43:53.292Z,5.86
2023-11-23T01:46:20.279Z,5.83
2023-11-23T01:48:49.517Z,5.79
2023-11-23T01:51:18.803Z,5.89
2023-11-23T01:53:46.028Z,5.85
2023-11-23T01:56:13.664Z,5.85
2023-11-23T01:58:40.684Z,5.82
2023-11-23T02:01:08.243Z,5.81
2023-11-23T02:03:35.613Z,5.83
2023-11-23T02:06:02.775Z,5.79
2023-11-23T02:08:29.785Z,5.74
2023-11-23T02:10:57.908Z,5.73
2023-11-23T02:13:25.973Z,5.75
2023-11-23T02:15:53.641Z,5.70
2023-11-23T02:18:20.900Z,5.70
2023-11-23T02:20:48.169Z,5.76
2023-11-23T02:23:15.211Z,5.77
2023-11-23T02:25:42.200Z,5.76
2023-11-23T02:28:09.731Z,5.81
2023-11-23T02:30:37.088Z,5.82
2023-11-23T02:33:05.420Z,5.81
2023-11-23T02:35:32.605Z,5.81
2023-11-23T02:37:59.624Z,5.84
2023-11-23T02:40:26.891Z,5.88
2023-11-23T02:42:53.964Z,5.86
2023-11-23T02:45:21.015Z,5.85
2023-11-23T02:47:48.071Z,5.85
2023-11-23T02:50:15.072Z,5.87
2023-11-23T02:52:42.083Z,5.83
2023-11-23T02:55:10.586Z,5.86
2023-11-23T02:57:37.472Z,5.89
2023-11-23T03:00:05.753Z,5.88
2023-11-23T03:02:32.895Z,5.95
2023-11-23T03:04:59.960Z,5.97
2023-11-23T03:07:26.914Z,6.00
2023-11-23T03:09:53.920Z,6.05
2023-11-23T03:12:20.954Z,6.06
2023-11-23T03:14:48.019Z,6.09
2023-11-23T03:17:15.280Z,6.07
2023-11-23T03:19:42.202Z,6.08
2023-11-23T03:22:09.473Z,6.09
2023-11-23T03:24:36.566Z,6.10
2023-11-23T03:27:03.781Z,6.14
2023-11-23T03:29:30.782Z,6.17
2023-11-23T03:31:57.826Z,6.18
2023-11-23T03:34:25.305Z,6.23
2023-11-23T03:36:52.291Z,6.26
2023-11-23T03:39:20.022Z,6.28
2023-11-23T03:41:48.929Z,6.28
2023-11-23T03:44:15.983Z,6.35
2023-11-23T03:46:43.294Z,6.41
2023-11-23T03:49:10.418Z,6.42
2023-11-23T03:51:37.995Z,6.44
2023-11-23T03:54:05.472Z,6.46
2023-11-23T03:56:32.760Z,6.50
2023-11-23T03:58:59.705Z,6.50
2023-11-23T04:01:26.698Z,6.54
2023-11-23T04:03:53.856Z,6.61
2023-11-23T04:06:20.951Z,6.67
2023-11-23T04:08:49.392Z,6.67
2023-11-23T04:11:16.639Z,6.76
2023-11-23T04:13:43.729Z,6.78
2023-11-23T04:16:10.797Z,6.78
2023-11-23T04:18:37.895Z,6.77
2023-11-23T04:21:05.515Z,6.78
2023-11-23T04:23:32.755Z,6.81
2023-11-23T04:25:59.788Z,6.83
2023-11-23T04:28:27.383Z,6.84
2023-11-23T04:30:55.102Z,6.90
2023-11-23T04:33:24.634Z,6.93
2023-11-23T04:35:51.833Z,6.94
2023-11-23T04:38:18.793Z,6.95
2023-11-23T04:40:45.754Z,6.99
2023-11-23T04:43:13.640Z,7.09
2023-11-23T04:45:41.199Z,7.09
2023-11-23T04:48:08.547Z,7.12
2023-11-23T04:50:38.244Z,7.10
2023-11-23T04:53:05.277Z,7.12
2023-11-23T04:55:33.594Z,7.13
2023-11-23T04:58:00.555Z,7.15
2023-11-23T05:00:27.639Z,7.21
2023-11-23T05:02:56.105Z,7.25
2023-11-23T05:05:23.198Z,7.26
2023-11-23T05:07:50.464Z,7.29
2023-11-23T05:10:18.780Z,7.33
2023-11-23T05:12:45.749Z,7.38
2023-11-23T05:15:12.742Z,7.39
2023-11-23T05:17:39.797Z,7.41
2023-11-23T05:20:07.561Z,7.45
2023-11-23T05:22:34.483Z,7.46
2023-11-23T05:25:01.499Z,7.48
2023-11-23T05:27:28.496Z,7.54
2023-11-23T05:29:55.520Z,7.55
2023-11-23T05:32:22.650Z,7.58
2023-11-23T05:34:49.659Z,7.62
2023-11-23T05:37:16.938Z,7.64
2023-11-23T05:39:44.725Z,7.68
2023-11-23T05:42:12.463Z,7.70
2023-11-23T05:44:41.768Z,7.76
2023-11-23T05:47:09.004Z,7.76
2023-11-23T05:49:35.978Z,7.83
2023-11-23T05:52:03.069Z,7.84
2023-11-23T05:54:30.020Z,7.87
2023-11-23T05:56:56.934Z,7.97
2023-11-23T05:59:23.881Z,8.01
2023-11-23T06:01:51.828Z,8.03
2023-11-23T06:04:19.036Z,8.09
2023-11-23T06:06:46.174Z,8.10
2023-11-23T06:09:13.229Z,8.12
2023-11-23T06:11:40.274Z,8.08
2023-11-23T06:14:07.336Z,8.10
2023-11-23T06:16:35.111Z,8.13
2023-11-23T06:19:04.074Z,8.11
2023-11-23T06:21:32.542Z,8.10
2023-11-23T06:24:00.746Z,8.13
2023-11-23T06:26:28.828Z,8.16
2023-11-23T06:28:55.785Z,8.15
2023-11-23T06:31:22.819Z,8.14
2023-11-23T06:33:49.984Z,8.17
2023-11-23T06:36:17.786Z,8.19
2023-11-23T06:38:44.978Z,8.23
2023-11-23T06:41:22.980Z,8.22
2023-11-23T06:43:51.746Z,8.24
2023-11-23T06:46:20.794Z,8.27
2023-11-23T06:48:48.059Z,8.25
2023-11-23T06:51:15.263Z,8.25
2023-11-23T06:53:46.473Z,8.31
2023-11-23T06:56:18.004Z,8.29
2023-11-23T06:58:49.401Z,8.32
2023-11-23T07:01:17.286Z,8.31
2023-11-23T07:03:45.697Z,8.33
2023-11-23T07:06:12.920Z,8.37
2023-11-23T07:08:41.787Z,8.39
2023-11-23T07:11:09.325Z,8.36
2023-11-23T07:13:37.107Z,8.39
2023-11-23T07:16:06.244Z,8.39
2023-11-23T07:18:33.519Z,8.39
2023-11-23T07:21:00.831Z,8.42
2023-11-23T07:23:27.967Z,8.45
2023-11-23T07:25:54.979Z,8.47
2023-11-23T07:28:28.774Z,8.50
2023-11-23T07:30:57.887Z,8.52
2023-11-23T07:33:31.066Z,8.51
2023-11-23T07:35:58.132Z,8.55
2023-11-23T07:38:25.367Z,8.53
2023-11-23T07:40:52.345Z,8.57
2023-11-23T07:43:19.533Z,8.59
2023-11-23T07:45:46.437Z,8.60
2023-11-23T07:48:15.590Z,8.60
2023-11-23T07:50:44.621Z,8.64
2023-11-23T07:53:11.892Z,8.64
2023-11-23T07:55:38.942Z,8.65
2023-11-23T07:58:06.130Z,8.65
2023-11-23T08:00:33.319Z,8.67
2023-11-23T08:03:00.836Z,8.67
2023-11-23T08:05:28.097Z,8.70
2023-11-23T08:07:55.164Z,8.74
2023-11-23T08:10:22.093Z,8.76
2023-11-23T08:12:49.187Z,8.77
2023-11-23T08:15:16.646Z,8.78
2023-11-23T08:20:15.360Z,8.86
2023-11-23T08:22:42.463Z,8.85
2023-11-23T08:25:10.334Z,8.88
2023-11-23T08:27:39.250Z,8.96
2023-11-23T08:30:07.795Z,8.93
2023-11-23T08:32:34.827Z,8.96
2023-11-23T08:35:02.763Z,8.98
2023-11-23T08:37:29.862Z,8.99
2023-11-23T08:39:57.096Z,9.10
2023-11-23T08:42:24.284Z,9.07
2023-11-23T08:44:51.518Z,9.10
2023-11-23T08:47:18.673Z,9.10
2023-11-23T08:49:45.697Z,9.12
2023-11-23T08:52:12.877Z,9.19
2023-11-23T08:54:39.802Z,9.21
2023-11-23T08:57:10.530Z,9.22
2023-11-23T08:59:38.935Z,9.26
2023-11-23T09:02:17.259Z,9.24
2023-11-23T09:04:48.050Z,9.30
2023-11-23T09:07:15.100Z,9.33
2023-11-23T09:09:42.090Z,9.34
2023-11-23T09:12:09.274Z,9.39
2023-11-23T09:14:46.554Z,9.40
2023-11-23T09:17:17.850Z,9.40
2023-11-23T09:19:46.647Z,9.41
2023-11-23T09:22:14.700Z,9.46
2023-11-23T09:24:41.674Z,9.41
2023-11-23T09:27:09.208Z,9.41
2023-11-23T09:29:36.299Z,9.35
2023-11-23T09:32:04.665Z,9.35
2023-11-23T09:34:31.767Z,9.38
2023-11-23T09:36:58.850Z,9.39
2023-11-23T09:39:25.822Z,9.39
2023-11-23T09:41:55.259Z,9.42
2023-11-23T09:44:23.658Z,9.42
2023-11-23T09:46:54.343Z,9.41
2023-11-23T09:49:22.596Z,9.42
2023-11-23T09:51:57.154Z,9.45
2023-11-23T09:54:28.060Z,9.43
2023-11-23T09:56:56.454Z,9.45
2023-11-23T09:59:25.359Z,9.46
2023-11-23T10:01:56.268Z,9.52
2023-11-23T10:04:23.478Z,9.50
2023-11-23T10:06:51.526Z,9.48
2023-11-23T10:09:19.291Z,9.47
2023-11-23T10:11:48.436Z,9.52
2023-11-23T10:14:17.313Z,9.52
2023-11-23T10:16:44.596Z,9.52
2023-11-23T10:19:22.434Z,9.50
2023-11-23T10:21:50.305Z,9.52
2023-11-23T10:24:18.089Z,9.52
2023-11-23T10:26:45.191Z,9.50
2023-11-23T10:29:13.078Z,9.47
2023-11-23T10:31:40.306Z,9.46
2023-11-23T10:34:09.454Z,9.44
2023-11-23T10:36:44.913Z,9.47
2023-11-23T10:39:17.670Z,9.45
2023-11-23T10:41:47.844Z,9.44
2023-11-23T10:44:16.726Z,9.46
2023-11-23T10:46:45.679Z,9.44
2023-11-23T10:49:15.603Z,9.48
2023-11-23T10:51:45.241Z,9.50
2023-11-23T10:54:12.306Z,9.49
2023-11-23T10:56:44.863Z,9.53
2023-11-23T10:59:22.163Z,9.53
2023-11-23T11:01:57.595Z,9.53
2023-11-23T11:04:24.788Z,9.58
2023-11-23T11:06:56.500Z,9.62
2023-11-23T11:09:30.404Z,9.62
2023-11-23T11:12:02.204Z,9.61
2023-11-23T11:14:37.662Z,9.64
2023-11-23T11:17:07.569Z,9.61
2023-11-23T11:19:47.037Z,9.62
2023-11-23T11:22:15.373Z,9.66
2023-11-23T11:24:46.619Z,9.64
2023-11-23T11:27:14.354Z,9.62
2023-11-23T11:29:52.910Z,9.63
2023-11-23T11:32:22.957Z,9.63
2023-11-23T11:35:02.350Z,9.68
2023-11-23T11:37:34.790Z,9.67
2023-11-23T11:40:02.154Z,9.68
2023-11-23T11:42:31.562Z,9.65
2023-11-23T11:44:59.427Z,9.75
2023-11-23T11:47:27.588Z,9.70
2023-11-23T11:49:57.080Z,9.74
2023-11-23T11:52:24.089Z,9.75
2023-11-23T11:54:52.305Z,9.81
2023-11-23T11:57:19.927Z,9.84
2023-11-23T11:59:48.117Z,9.82
2023-11-23T12:02:16.035Z,9.87
2023-11-23T12:04:43.311Z,9.88
2023-11-23T12:07:15.897Z,9.91
2023-11-23T12:09:46.829Z,9.96
2023-11-23T12:12:14.780Z,9.97
2023-11-23T12:14:42.101Z,9.99
2023-11-23T12:17:14.556Z,10.01
2023-11-23T12:21:01.497Z,10.10
2023-11-23T12:23:30.295Z,10.11
2023-11-23T12:25:57.350Z,10.16
2023-11-23T12:28:24.663Z,10.18
2023-11-23T12:30:51.829Z,10.24
2023-11-23T12:33:19.261Z,10.24
2023-11-23T12:35:46.475Z,10.26
2023-11-23T12:38:13.481Z,10.24
2023-11-23T12:40:40.592Z,10.30
2023-11-23T12:43:07.609Z,10.29
2023-11-23T12:45:37.423Z,10.30
2023-11-23T12:48:07.799Z,10.35
2023-11-23T12:50:34.835Z,10.35
2023-11-23T12:53:01.778Z,10.36
2023-11-23T12:55:28.667Z,10.43
2023-11-23T12:57:56.106Z,10.44
2023-11-23T13:00:24.022Z,10.45
2023-11-23T13:02:51.087Z,10.50
2023-11-23T13:05:19.167Z,10.50
2023-11-23T13:07:46.186Z,10.50
2023-11-23T13:10:17.257Z,10.55
2023-11-23T13:12:44.468Z,10.55
2023-11-23T13:15:13.669Z,10.56
2023-11-23T13:17:42.411Z,10.59
2023-11-23T13:20:11.017Z,10.57
2023-11-23T13:22:38.332Z,10.57
2023-11-23T13:25:06.981Z,10.62
2023-11-23T13:27:34.055Z,10.62
2023-11-23T13:30:01.146Z,10.62
2023-11-23T13:32:28.405Z,10.64
2023-11-23T13:34:56.383Z,10.68
2023-11-23T13:37:23.616Z,10.69
2023-11-23T13:39:50.647Z,10.69
2023-11-23T13:42:18.962Z,10.71
2023-11-23T13:44:48.805Z,10.72
2023-11-23T13:47:15.908Z,10.73
2023-11-23T13:49:44.291Z,10.76
2023-11-23T13:52:11.614Z,10.74
2023-11-23T13:54:39.113Z,10.80
2023-11-23T13:57:07.425Z,10.79
2023-11-23T13:59:35.682Z,10.78
2023-11-23T14:02:04.164Z,10.76
2023-11-23T14:04:32.855Z,10.76
2023-11-23T14:07:00.403Z,10.78
2023-11-23T14:09:29.942Z,10.77
2023-11-23T14:11:57.087Z,10.77
2023-11-23T14:14:23.980Z,10.82
2023-11-23T14:16:50.883Z,10.83
2023-11-23T14:19:18.558Z,10.80
2023-11-23T14:21:47.973Z,10.81
2023-11-23T14:24:16.694Z,10.81
2023-11-23T14:26:43.955Z,10.85
2023-11-23T14:29:12.566Z,10.88
2023-11-23T14:31:39.605Z,10.83
2023-11-23T14:34:07.267Z,10.85
2023-11-23T14:36:34.378Z,10.85
2023-11-23T14:39:01.883Z,10.87
2023-11-23T14:41:28.917Z,10.88
2023-11-23T14:43:56.024Z,10.92
2023-11-23T14:46:23.120Z,10.92
2023-11-23T14:48:50.158Z,10.91
2023-11-23T14:51:17.639Z,10.93
2023-11-23T14:53:44.631Z,10.93
2023-11-23T14:56:11.525Z,10.94
2023-11-23T14:58:38.681Z,10.92
2023-11-23T15:01:05.716Z,10.95
2023-11-23T15:03:33.023Z,10.96
2023-11-23T15:06:00.815Z,10.98
2023-11-23T15:08:27.729Z,10.96
2023-11-23T15:10:55.246Z,10.92
2023-11-23T15:13:26.437Z,10.99
2023-11-23T15:16:00.256Z,10.97
2023-11-23T15:18:27.309Z,10.95
2023-11-23T15:20:54.271Z,10.93
2023-11-23T15:23:21.680Z,10.88
2023-11-23T15:25:49.116Z,10.83
2023-11-23T15:28:16.210Z,10.76
2023-11-23T15:30:43.404Z,10.66
2023-11-23T15:33:11.635Z,10.57
2023-11-23T15:35:42.546Z,10.54
2023-11-23T15:38:09.519Z,10.45
2023-11-23T15:40:37.286Z,10.42
2023-11-23T15:43:04.428Z,10.41
2023-11-23T15:45:31.948Z,10.42
2023-11-23T15:47:58.935Z,10.35
2023-11-23T15:50:29.381Z,10.33
2023-11-23T15:52:58.528Z,10.32
2023-11-23T15:55:25.581Z,10.25
2023-11-23T15:57:53.178Z,10.27
2023-11-23T16:00:25.580Z,10.29
2023-11-23T16:02:55.042Z,10.32
2023-11-23T16:05:28.863Z,10.35
2023-11-23T16:07:56.688Z,10.32
2023-11-23T16:10:23.852Z,10.40
2023-11-23T16:12:50.848Z,10.47
2023-11-23T16:15:18.069Z,10.45
2023-11-23T16:17:45.627Z,10.47
2023-11-23T16:20:16.692Z,10.47
2023-11-23T16:22:45.872Z,10.48
2023-11-23T16:25:12.925Z,10.56
2023-11-23T16:27:40.578Z,10.58
2023-11-23T16:30:13.403Z,10.62
2023-11-23T16:32:41.720Z,10.63
2023-11-23T16:35:12.528Z,10.62
2023-11-23T16:37:39.781Z,10.70
2023-11-23T16:40:12.131Z,10.72
2023-11-23T16:42:43.256Z,10.75
2023-11-23T16:45:12.025Z,10.75
2023-11-23T16:47:40.327Z,10.83
2023-11-23T16:50:11.440Z,10.67
2023-11-23T16:52:38.470Z,10.59
2023-11-23T16:55:07.434Z,10.54
2023-11-23T16:57:34.650Z,10.53
2023-11-23T17:00:01.917Z,10.53
2023-11-23T17:02:28.994Z,10.46
2023-11-23T17:04:57.104Z,10.47
2023-11-23T17:07:25.483Z,10.50
2023-11-23T17:09:54.245Z,10.38
2023-11-23T17:12:21.203Z,10.37
2023-11-23T17:14:48.157Z,10.37
2023-11-23T17:17:15.037Z,10.42
2023-11-23T17:19:43.863Z,10.38
2023-11-23T17:22:10.832Z,10.37
2023-11-23T17:24:37.867Z,10.38
2023-11-23T17:27:05.611Z,10.35
2023-11-23T17:29:32.535Z,10.38
2023-11-23T17:31:59.469Z,10.42
2023-11-23T17:34:27.465Z,10.31
2023-11-23T17:36:54.470Z,10.29
2023-11-23T17:39:23.646Z,10.25
2023-11-23T17:41:52.062Z,10.21
2023-11-23T17:44:19.815Z,10.20
2023-11-23T17:46:46.905Z,10.18
2023-11-23T17:49:17.336Z,10.17
2023-11-23T17:51:44.864Z,10.18
2023-11-23T17:54:12.953Z,10.17
2023-11-23T17:56:41.452Z,10.19
2023-11-23T17:59:25.208Z,10.13
2023-11-23T18:01:59.067Z,10.12
2023-11-23T18:04:27.642Z,10.18
2023-11-23T18:06:55.653Z,10.20
2023-11-23T18:09:22.814Z,10.19
2023-11-23T18:11:50.115Z,10.16
2023-11-23T18:14:17.434Z,10.18
2023-11-23T18:16:45.287Z,10.21
2023-11-23T18:19:12.332Z,10.17
2023-11-23T18:21:39.926Z,10.20
2023-11-23T18:24:06.963Z,10.20
2023-11-23T18:26:33.829Z,10.28
2023-11-23T18:29:00.761Z,10.29
2023-11-23T18:31:28.119Z,10.28
2023-11-23T18:33:55.103Z,10.20
2023-11-23T18:36:23.136Z,10.21
2023-11-23T18:38:50.059Z,10.13
2023-11-23T18:41:17.447Z,10.09
2023-11-23T18:43:44.424Z,10.10
2023-11-23T18:46:13.620Z,10.05
2023-11-23T18:48:40.676Z,10.02
2023-11-23T18:51:08.821Z,10.11
2023-11-23T18:53:35.749Z,10.09
2023-11-23T18:56:04.819Z,10.07
2023-11-23T18:58:31.738Z,10.01
2023-11-23T19:01:00.723Z,10.05
2023-11-23T19:03:28.199Z,10.00
2023-11-23T19:05:59.706Z,9.98
2023-11-23T19:08:26.748Z,10.00
2023-11-23T19:10:53.876Z,10.00
2023-11-23T19:13:21.415Z,10.01
2023-11-23T19:15:49.668Z,9.99
2023-11-23T19:18:17.894Z,9.99
2023-11-23T19:20:45.231Z,10.07
2023-11-23T19:23:13.410Z,10.09
2023-11-23T19:25:40.740Z,10.09
2023-11-23T19:28:08.258Z,10.10
2023-11-23T19:30:35.710Z,10.18
2023-11-23T19:33:06.607Z,10.16
2023-11-23T19:35:35.724Z,10.11
2023-11-23T19:38:05.363Z,10.15
2023-11-23T19:40:32.939Z,10.21
2023-11-23T19:43:00.741Z,10.16
2023-11-23T19:45:28.611Z,10.13
2023-11-23T19:47:56.232Z,10.14
2023-11-23T19:50:23.650Z,10.11
2023-11-23T19:52:55.303Z,10.15
2023-11-23T19:55:22.183Z,10.13
2023-11-23T19:57:49.171Z,10.18
2023-11-23T20:00:17.305Z,10.22
2023-11-23T20:02:45.062Z,10.25
2023-11-23T20:05:12.259Z,10.22
2023-11-23T20:07:39.252Z,10.18
2023-11-23T20:10:08.146Z,10.13
2023-11-23T20:12:35.269Z,10.12
2023-11-23T20:15:03.015Z,10.14
2023-11-23T20:17:29.958Z,10.20
2023-11-23T20:19:56.927Z,10.18
2023-11-23T20:22:23.893Z,10.12
2023-11-23T20:24:50.882Z,10.11
2023-11-23T20:27:17.967Z,10.11
2023-11-23T20:29:45.111Z,10.09
2023-11-23T20:32:12.228Z,10.10
2023-11-23T20:34:39.828Z,10.07
2023-11-23T20:37:06.769Z,10.09
2023-11-23T20:39:34.191Z,10.06
2023-11-23T20:42:01.179Z,10.08
2023-11-23T20:44:28.129Z,10.12
2023-11-23T20:46:57.492Z,10.15
2023-11-23T20:49:26.394Z,10.18
2023-11-23T20:51:54.087Z,10.18
2023-11-23T20:54:21.180Z,10.18
2023-11-23T20:56:48.709Z,10.25
2023-11-23T20:59:15.931Z,10.27
2023-11-23T21:01:43.329Z,10.19
2023-11-23T21:04:14.716Z,10.10
2023-11-23T21:06:53.130Z,10.08
2023-11-23T21:09:26.370Z,10.09
2023-11-23T21:11:56.292Z,10.16
2023-11-23T21:14:24.836Z,10.12
2023-11-23T21:16:51.918Z,10.18
2023-11-23T21:19:19.001Z,10.15
2023-11-23T21:21:46.131Z,10.90
2023-11-23T21:24:14.482Z,9.48
2023-11-23T21:26:42.165Z,9.07
2023-11-23T21:29:10.861Z,8.65
2023-11-23T21:31:38.009Z,8.50
2023-11-23T21:34:05.210Z,8.46
2023-11-23T21:36:36.050Z,8.40
2023-11-23T21:39:03.097Z,8.36
2023-11-23T21:41:30.308Z,8.34
2023-11-23T21:43:57.231Z,8.33
2023-11-23T21:46:25.991Z,8.35
2023-11-23T21:48:53.964Z,8.33
2023-11-23T21:51:29.208Z,8.30
2023-11-23T21:53:58.166Z,8.24
2023-11-23T21:56:25.235Z,8.23
2023-11-23T21:58:52.225Z,8.21
2023-11-23T22:01:19.268Z,8.19
2023-11-23T22:03:50.790Z,8.23
2023-11-23T22:06:19.002Z,8.20
2023-11-23T22:08:45.901Z,8.20
2023-11-23T22:11:13.965Z,8.21
2023-11-23T22:13:41.540Z,8.21
2023-11-23T22:16:08.456Z,8.20
2023-11-23T22:18:36.280Z,8.23
2023-11-23T22:21:05.793Z,8.26
2023-11-23T22:23:34.082Z,8.18
2023-11-23T22:26:02.177Z,8.16
2023-11-23T22:28:29.619Z,8.22
2023-11-23T22:30:57.197Z,8.10
2023-11-23T22:33:25.683Z,7.97
2023-11-23T22:35:52.818Z,7.90
2023-11-23T22:38:19.983Z,7.90
2023-11-23T22:40:47.263Z,7.91
2023-11-23T22:43:14.893Z,7.89
2023-11-23T22:45:42.029Z,7.97
2023-11-23T22:48:08.960Z,7.88
2023-11-23T22:50:35.880Z,7.88
2023-11-23T22:53:02.758Z,7.79
2023-11-23T22:55:29.698Z,7.75
2023-11-23T22:57:56.801Z,7.78
2023-11-23T23:00:27.861Z,7.80
2023-11-23T23:02:55.668Z,7.82
2023-11-23T23:05:22.698Z,7.85
2023-11-23T23:07:50.259Z,7.89
2023-11-23T23:10:17.825Z,7.92
2023-11-23T23:12:44.770Z,7.91
2023-11-23T23:15:11.671Z,7.94
2023-11-23T23:17:38.582Z,7.99
2023-11-23T23:20:07.445Z,8.05
2023-11-23T23:22:34.604Z,8.09
2023-11-23T23:25:03.403Z,8.18
2023-11-23T23:27:30.319Z,8.24
2023-11-23T23:29:57.344Z,8.16
2023-11-23T23:32:25.017Z,8.20
2023-11-23T23:34:52.554Z,8.22
2023-11-23T23:37:19.476Z,8.20
2023-11-23T23:39:46.372Z,8.25
2023-11-23T23:42:13.395Z,8.24
2023-11-23T23:44:40.310Z,8.25
2023-11-23T23:47:09.000Z,8.22
2023-11-23T23:49:37.563Z,8.14
2023-11-23T23:52:05.002Z,7.99
2023-11-23T23:54:31.917Z,7.95
2023-11-23T23:56:59.058Z,7.77
2023-11-23T23:59:26.264Z,7.65
